Finlandia — OJPP — position and weather

sailwx.info

Track history (hours):
 
Tides and Currents Weather Stations Pressure Air Temp Water Temp Dewpoint Dewpoint Depression Visibility Wind Speed Wind Dir Waves Ship Positions

Finlandia

Last reported at 2015-Mar-31 06:33 UTC. Time now 2015-Mar-31 06:42 UTC.
Position N 59°49' E 024°50'.

Length 175 m; draft 7 m.

Type: Passenger vessel. MMSI: 230628000.

Date/timePositionNaut miles runAvg speedWind from/ knotsBaromVisibWave heightAir tempDewpointWater temp
2015-Mar-31 06:33N 59°49' E 024°50'4 0.3
2015-Mar-30 17:11N 59°45' E 024°48'1625.4
2015-Mar-30 16:34N 59°29' E 024°46'3 2.6
2015-Mar-30 15:33N 59°27' E 024°46'7 7.3
2015-Mar-30 14:34N 59°34' E 024°42'2017.7
2015-Mar-30 13:26N 59°53' E 024°50'18 4.7
2015-Mar-30 09:33N 59°35' E 024°42'9 8.7
2015-Mar-30 08:33N 59°27' E 024°46'3 3.1
2015-Mar-30 07:33N 59°30' E 024°45'11 0.7
2015-Mar-29 16:33N 59°40' E 024°45'1413.7
2015-Mar-29 15:33N 59°27' E 024°46'0 0.0
2015-Mar-29 14:34N 59°27' E 024°46'1918.7
2015-Mar-29 13:33N 59°45' E 024°48'2322.5
2015-Mar-29 12:32N 60°08' E 024°54'3210.7
2015-Mar-29 09:33N 59°37' E 024°42'1010.4
2015-Mar-29 08:33N 59°27' E 024°46'3 3.1
2015-Mar-29 07:33N 59°30' E 024°45'6 0.4
2015-Mar-28 15:30N 59°36' E 024°40'1818.7
2015-Mar-28 14:33N 59°51' E 024°56'6 1.7
2015-Mar-28 11:04N 59°48' E 024°46'1020.2
2015-Mar-28 10:33N 59°38' E 024°41'1211.3
2015-Mar-28 09:31N 59°27' E 024°46'4 3.7
2015-Mar-28 08:33N 59°30' E 024°44'15 1.1
2015-Mar-27 18:07N 59°46' E 024°48'1424.9
2015-Mar-27 17:34N 59°32' E 024°44'5 5.3
2015-Mar-27 16:33N 59°27' E 024°46'8 7.7
2015-Mar-27 15:33N 59°34' E 024°41'4 0.8
2015-Mar-27 10:33N 59°38' E 024°43'1111.4
2015-Mar-27 09:33N 59°27' E 024°46'4 4.3
2015-Mar-27 08:33N 59°31' E 024°44'14 1.0
2015-Mar-26 18:32N 59°44' E 024°48'1818.0
2015-Mar-26 17:33N 59°27' E 024°46'0 0.0
2015-Mar-26 16:33N 59°27' E 024°46'8 7.7
2015-Mar-26 15:33N 59°34' E 024°41'3510.2
2015-Mar-26 12:09N 60°08' E 024°54'2119.7
2015-Mar-26 11:05N 59°48' E 024°46'1120.6
2015-Mar-26 10:33N 59°37' E 024°41'1010.5
2015-Mar-26 09:33N 59°27' E 024°46'3 3.1
2015-Mar-26 08:34N 59°30' E 024°45'2019.6
2015-Mar-26 07:33N 59°50' E 024°46'5 0.3
2015-Mar-25 18:13N 59°45' E 024°48'1624.3
2015-Mar-25 17:34N 59°29' E 024°46'2 2.4
2015-Mar-25 16:33N 59°27' E 024°46'9 9.0
2015-Mar-25 15:33N 59°35' E 024°40'1 0.3
2015-Mar-25 10:34N 59°34' E 024°43'8 7.7
2015-Mar-25 09:33N 59°27' E 024°46'4 3.6
2015-Mar-25 08:34N 59°30' E 024°44'16 1.1
2015-Mar-24 18:13N 59°46' E 024°49'1624.4
2015-Mar-24 17:34N 59°30' E 024°46'3 3.3
2015-Mar-24 16:33N 59°27' E 024°46'8 8.3
2015-Mar-24 15:33N 59°35' E 024°41'13 3.0
2015-Mar-24 11:14N 59°48' E 024°42'1522.1
2015-Mar-24 10:34N 59°33' E 024°44'6 6.3
2015-Mar-24 09:33N 59°27' E 024°46'5 5.0
2015-Mar-24 08:33N 59°32' E 024°43'18 1.2
2015-Mar-23 18:21N 59°49' E 024°38'1924.4
2015-Mar-23 17:34N 59°30' E 024°46'3 3.2
2015-Mar-23 16:33N 59°27' E 024°46'9 9.1
2015-Mar-23 15:33N 59°35' E 024°40'2919.3
2015-Mar-23 14:05N 60°03' E 024°54'16 5.6
2015-Mar-23 11:12N 59°48' E 024°45'1420.4
2015-Mar-23 10:32N 59°34' E 024°43'7 7.6
2015-Mar-23 09:33N 59°27' E 024°46'5 5.0
2015-Mar-23 08:33N 59°32' E 024°43'1918.5
2015-Mar-23 07:32N 59°50' E 024°47'1818.1
2015-Mar-23 06:32N 60°08' E 024°54'29 2.2
2015-Mar-22 17:33N 59°40' E 024°44'1313.2
2015-Mar-22 16:33N 59°27' E 024°46'0 0.1
2015-Mar-22 15:33N 59°27' E 024°46'2121.0
2015-Mar-22 14:33N 59°48' E 024°46'1 0.2
2015-Mar-22 11:09N 59°48' E 024°47'1219.9
2015-Mar-22 10:33N 59°37' E 024°41'1010.4
2015-Mar-22 09:33N 59°27' E 024°46'3 2.5
2015-Mar-22 08:33N 59°29' E 024°45'2019.5
2015-Mar-22 07:31N 59°49' E 024°47'2019.4
2015-Mar-22 06:31N 60°09' E 024°54'34 2.6
2015-Mar-21 17:34N 59°35' E 024°42'8 8.4
2015-Mar-21 16:33N 59°27' E 024°46'8 8.1
2015-Mar-21 15:33N 59°34' E 024°41'14 3.1
2015-Mar-21 11:07N 59°48' E 024°46'1119.4
2015-Mar-21 10:33N 59°38' E 024°41'1111.1
2015-Mar-21 09:33N 59°27' E 024°46'3 3.3
2015-Mar-21 08:33N 59°30' E 024°44'  
Track history (hours):
 
Tides and Currents Weather Stations Pressure Air Temp Water Temp Dewpoint Dewpoint Depression Visibility Wind Speed Wind Dir Waves Ship Positions

Finlandia

Last reported at 2015-Mar-31 06:33 UTC. Time now 2015-Mar-31 06:42 UTC.
Position N 59°49' E 024°50'.

Length 175 m; draft 7 m.

Type: Passenger vessel. MMSI: 230628000.

Date/timePositionNaut miles runAvg speedWind from/ knotsBaromVisibWave heightAir tempDewpointWater temp
2015-Mar-31 06:33N 59°49' E 024°50'4 0.3
2015-Mar-30 17:11N 59°45' E 024°48'1625.4
2015-Mar-30 16:34N 59°29' E 024°46'3 2.6
2015-Mar-30 15:33N 59°27' E 024°46'7 7.3
2015-Mar-30 14:34N 59°34' E 024°42'2017.7
2015-Mar-30 13:26N 59°53' E 024°50'18 4.7
2015-Mar-30 09:33N 59°35' E 024°42'9 8.7
2015-Mar-30 08:33N 59°27' E 024°46'3 3.1
2015-Mar-30 07:33N 59°30' E 024°45'11 0.7
2015-Mar-29 16:33N 59°40' E 024°45'1413.7
2015-Mar-29 15:33N 59°27' E 024°46'0 0.0
2015-Mar-29 14:34N 59°27' E 024°46'1918.7
2015-Mar-29 13:33N 59°45' E 024°48'2322.5
2015-Mar-29 12:32N 60°08' E 024°54'3210.7
2015-Mar-29 09:33N 59°37' E 024°42'1010.4
2015-Mar-29 08:33N 59°27' E 024°46'3 3.1
2015-Mar-29 07:33N 59°30' E 024°45'6 0.4
2015-Mar-28 15:30N 59°36' E 024°40'1818.7
2015-Mar-28 14:33N 59°51' E 024°56'6 1.7
2015-Mar-28 11:04N 59°48' E 024°46'1020.2
2015-Mar-28 10:33N 59°38' E 024°41'1211.3
2015-Mar-28 09:31N 59°27' E 024°46'4 3.7
2015-Mar-28 08:33N 59°30' E 024°44'15 1.1
2015-Mar-27 18:07N 59°46' E 024°48'1424.9
2015-Mar-27 17:34N 59°32' E 024°44'5 5.3
2015-Mar-27 16:33N 59°27' E 024°46'8 7.7
2015-Mar-27 15:33N 59°34' E 024°41'4 0.8
2015-Mar-27 10:33N 59°38' E 024°43'1111.4
2015-Mar-27 09:33N 59°27' E 024°46'4 4.3
2015-Mar-27 08:33N 59°31' E 024°44'14 1.0
2015-Mar-26 18:32N 59°44' E 024°48'1818.0
2015-Mar-26 17:33N 59°27' E 024°46'0 0.0
2015-Mar-26 16:33N 59°27' E 024°46'8 7.7
2015-Mar-26 15:33N 59°34' E 024°41'3510.2
2015-Mar-26 12:09N 60°08' E 024°54'2119.7
2015-Mar-26 11:05N 59°48' E 024°46'1120.6
2015-Mar-26 10:33N 59°37' E 024°41'1010.5
2015-Mar-26 09:33N 59°27' E 024°46'3 3.1
2015-Mar-26 08:34N 59°30' E 024°45'2019.6
2015-Mar-26 07:33N 59°50' E 024°46'5 0.3
2015-Mar-25 18:13N 59°45' E 024°48'1624.3
2015-Mar-25 17:34N 59°29' E 024°46'2 2.4
2015-Mar-25 16:33N 59°27' E 024°46'9 9.0
2015-Mar-25 15:33N 59°35' E 024°40'1 0.3
2015-Mar-25 10:34N 59°34' E 024°43'8 7.7
2015-Mar-25 09:33N 59°27' E 024°46'4 3.6
2015-Mar-25 08:34N 59°30' E 024°44'16 1.1
2015-Mar-24 18:13N 59°46' E 024°49'1624.4
2015-Mar-24 17:34N 59°30' E 024°46'3 3.3
2015-Mar-24 16:33N 59°27' E 024°46'8 8.3
2015-Mar-24 15:33N 59°35' E 024°41'13 3.0
2015-Mar-24 11:14N 59°48' E 024°42'1522.1
2015-Mar-24 10:34N 59°33' E 024°44'6 6.3
2015-Mar-24 09:33N 59°27' E 024°46'5 5.0
2015-Mar-24 08:33N 59°32' E 024°43'18 1.2
2015-Mar-23 18:21N 59°49' E 024°38'1924.4
2015-Mar-23 17:34N 59°30' E 024°46'3 3.2
2015-Mar-23 16:33N 59°27' E 024°46'9 9.1
2015-Mar-23 15:33N 59°35' E 024°40'2919.3
2015-Mar-23 14:05N 60°03' E 024°54'16 5.6
2015-Mar-23 11:12N 59°48' E 024°45'1420.4
2015-Mar-23 10:32N 59°34' E 024°43'7 7.6
2015-Mar-23 09:33N 59°27' E 024°46'5 5.0
2015-Mar-23 08:33N 59°32' E 024°43'1918.5
2015-Mar-23 07:32N 59°50' E 024°47'1818.1
2015-Mar-23 06:32N 60°08' E 024°54'29 2.2
2015-Mar-22 17:33N 59°40' E 024°44'1313.2
2015-Mar-22 16:33N 59°27' E 024°46'0 0.1
2015-Mar-22 15:33N 59°27' E 024°46'2121.0
2015-Mar-22 14:33N 59°48' E 024°46'1 0.2
2015-Mar-22 11:09N 59°48' E 024°47'1219.9
2015-Mar-22 10:33N 59°37' E 024°41'1010.4
2015-Mar-22 09:33N 59°27' E 024°46'3 2.5
2015-Mar-22 08:33N 59°29' E 024°45'2019.5
2015-Mar-22 07:31N 59°49' E 024°47'2019.4
2015-Mar-22 06:31N 60°09' E 024°54'34 2.6
2015-Mar-21 17:34N 59°35' E 024°42'8 8.4
2015-Mar-21 16:33N 59°27' E 024°46'8 8.1
2015-Mar-21 15:33N 59°34' E 024°41'14 3.1
2015-Mar-21 11:07N 59°48' E 024°46'1119.4
2015-Mar-21 10:33N 59°38' E 024°41'1111.1
2015-Mar-21 09:33N 59°27' E 024°46'3 3.3
2015-Mar-21 08:33N 59°30' E 024°44'  

Dump ship's entire track history